Time;durP1;ratioP1;P1;durP2;ratioP2;P2;SDS_P1;SDS_P2;PMS_P1;PMS_P2;Temp;Humidity;BMP_temperature;BMP_pressure;BME280_temperature;BME280_humidity;BME280_pressure;Samples;Min_cycle;Max_cycle;Signal;HPM_P1;HPM_P2
2022/05/08 00:00:56;;;;;;;28.60;19.40;;;15.50;99.90;;;;;;5060856;28;20009;-83
2022/05/08 00:03:22;;;;;;;33.83;19.50;;;15.50;99.90;;;;;;5060614;28;20064;-84
2022/05/08 00:05:48;;;;;;;30.45;20.00;;;15.50;99.90;;;;;;5042976;28;20013;-83
2022/05/08 00:08:17;;;;;;;34.65;20.20;;;15.50;99.90;;;;;;5043293;28;20048;-82
2022/05/08 00:10:43;;;;;;;30.77;19.50;;;15.50;99.90;;;;;;5060661;28;20022;-81
2022/05/08 00:13:09;;;;;;;30.45;20.35;;;15.50;99.90;;;;;;5059758;28;20033;-83
2022/05/08 00:15:35;;;;;;;29.83;20.30;;;15.50;99.90;;;;;;5026873;28;20014;-83
2022/05/08 00:18:02;;;;;;;32.63;20.38;;;15.40;99.90;;;;;;5060295;28;20078;-83
2022/05/08 00:20:28;;;;;;;28.35;19.38;;;15.40;99.90;;;;;;5061009;28;20022;-82
2022/05/08 00:22:54;;;;;;;31.88;20.30;;;15.40;99.90;;;;;;5060713;28;20064;-82
2022/05/08 00:25:20;;;;;;;30.27;19.35;;;15.40;99.90;;;;;;5060695;28;20020;-80
2022/05/08 00:27:46;;;;;;;29.50;18.73;;;15.50;99.90;;;;;;5060941;28;20030;-84
2022/05/08 00:30:12;;;;;;;30.85;20.00;;;15.50;99.90;;;;;;5060539;28;20029;-84
2022/05/08 00:32:39;;;;;;;30.92;20.50;;;15.50;99.90;;;;;;5040949;28;20037;-85
2022/05/08 00:35:06;;;;;;;32.10;20.05;;;15.50;99.90;;;;;;5025352;28;20028;-82
2022/05/08 00:37:32;;;;;;;33.83;20.23;;;15.50;99.90;;;;;;5059945;28;20049;-84
2022/05/08 00:39:57;;;;;;;30.77;20.25;;;15.50;99.90;;;;;;5041908;28;20017;-85
2022/05/08 00:42:23;;;;;;;31.20;19.40;;;15.50;99.90;;;;;;5058810;28;20014;-84
2022/05/08 00:44:49;;;;;;;35.63;21.00;;;15.50;99.90;;;;;;5058840;28;20029;-83
2022/05/08 00:47:15;;;;;;;33.85;20.13;;;15.50;99.90;;;;;;5039243;28;20040;-82
2022/05/08 00:49:41;;;;;;;31.30;19.95;;;15.40;99.90;;;;;;5056411;28;20033;-85
2022/05/08 00:52:10;;;;;;;33.33;19.50;;;15.40;99.90;;;;;;5035192;28;20493;-85
2022/05/08 00:54:36;;;;;;;36.10;19.83;;;15.40;99.90;;;;;;5051716;28;20101;-83
2022/05/08 00:57:07;;;;;;;31.15;19.92;;;15.40;99.90;;;;;;5040854;28;20109;-85
2022/05/08 00:59:34;;;;;;;33.35;20.20;;;15.50;99.90;;;;;;5049771;28;20029;-86
2022/05/08 01:02:00;;;;;;;31.02;20.85;;;15.50;99.90;;;;;;5052413;28;20026;-83
2022/05/08 01:04:25;;;;;;;29.70;20.33;;;15.50;99.90;;;;;;5039515;28;20034;-83
2022/05/08 01:06:51;;;;;;;30.90;19.90;;;15.40;99.90;;;;;;5054125;28;20049;-83
2022/05/08 01:09:18;;;;;;;34.63;21.10;;;15.40;99.90;;;;;;5046746;28;20029;-83
2022/05/08 01:11:44;;;;;;;32.42;20.55;;;15.40;99.90;;;;;;5041019;28;20330;-83
2022/05/08 01:14:13;;;;;;;28.90;19.85;;;15.40;99.90;;;;;;5058517;28;20009;-83
2022/05/08 01:16:40;;;;;;;36.45;21.40;;;15.40;99.90;;;;;;5058407;28;20028;-82
2022/05/08 01:19:05;;;;;;;30.35;20.40;;;15.40;99.90;;;;;;5058034;28;20029;-84
2022/05/08 01:21:41;;;;;;;33.95;21.50;;;15.50;99.90;;;;;;5058232;28;20098;-83
2022/05/08 01:24:11;;;;;;;35.47;21.10;;;15.50;99.90;;;;;;5041110;28;20022;-85
2022/05/08 01:26:37;;;;;;;31.10;21.13;;;15.50;99.90;;;;;;5057261;28;20025;-83
2022/05/08 01:29:03;;;;;;;36.13;20.30;;;15.50;99.90;;;;;;5058306;28;20029;-84
2022/05/08 01:31:31;;;;;;;31.15;20.50;;;15.50;99.90;;;;;;5058902;28;20057;-82
2022/05/08 01:33:58;;;;;;;34.10;20.95;;;15.50;99.90;;;;;;5058810;28;20060;-84
2022/05/08 01:36:24;;;;;;;30.05;20.98;;;15.40;99.90;;;;;;5041473;28;20108;-83
2022/05/08 01:38:51;;;;;;;30.27;20.40;;;15.40;99.90;;;;;;5041805;28;20014;-84
2022/05/08 01:41:17;;;;;;;34.15;21.27;;;15.40;99.90;;;;;;5042576;28;20017;-83
2022/05/08 01:43:42;;;;;;;30.08;19.85;;;15.40;99.90;;;;;;5058522;28;20028;-82
2022/05/08 01:46:10;;;;;;;34.13;20.98;;;15.40;99.90;;;;;;5058497;28;20020;-82
2022/05/08 01:48:36;;;;;;;35.70;20.65;;;15.40;99.90;;;;;;5058478;28;20025;-82
2022/05/08 01:51:03;;;;;;;33.65;22.00;;;15.40;99.90;;;;;;5041263;28;20089;-82
2022/05/08 01:53:32;;;;;;;31.17;21.45;;;15.40;99.90;;;;;;5058407;28;20025;-82
2022/05/08 01:55:58;;;;;;;34.78;20.67;;;15.40;99.90;;;;;;5058164;28;20028;-84
2022/05/08 01:58:26;;;;;;;31.83;20.92;;;15.50;99.90;;;;;;5041303;28;20018;-83
2022/05/08 02:00:53;;;;;;;33.78;21.13;;;15.40;99.90;;;;;;5058481;28;20021;-83
2022/05/08 02:03:20;;;;;;;36.78;21.80;;;15.40;99.90;;;;;;5058262;28;20022;-85
2022/05/08 02:05:46;;;;;;;36.35;22.00;;;15.40;99.90;;;;;;5056487;28;20044;-83
2022/05/08 02:08:13;;;;;;;31.17;20.50;;;15.40;99.90;;;;;;5059208;28;20083;-83
2022/05/08 02:10:41;;;;;;;35.63;21.83;;;15.40;99.90;;;;;;5059223;28;20036;-81
2022/05/08 02:13:08;;;;;;;34.60;21.55;;;15.40;99.90;;;;;;5058997;28;20025;-82
2022/05/08 02:15:34;;;;;;;36.28;21.77;;;15.30;99.90;;;;;;5041376;28;20029;-82
2022/05/08 02:18:04;;;;;;;31.73;20.92;;;15.30;99.90;;;;;;5058973;28;20085;-82
2022/05/08 02:20:30;;;;;;;32.17;21.25;;;15.30;99.90;;;;;;5041881;28;20013;-83
2022/05/08 02:22:58;;;;;;;42.25;23.48;;;15.20;99.90;;;;;;5057957;28;20017;-84
2022/05/08 02:25:24;;;;;;;33.42;22.58;;;15.20;99.90;;;;;;5040584;28;20045;-82
2022/05/08 02:27:51;;;;;;;35.20;22.45;;;15.20;99.90;;;;;;5058573;28;20022;-82
2022/05/08 02:30:20;;;;;;;32.50;22.08;;;15.10;99.90;;;;;;5058743;28;20044;-82
2022/05/08 02:32:46;;;;;;;34.28;21.50;;;15.10;99.90;;;;;;5024880;28;20029;-82
2022/05/08 02:35:12;;;;;;;34.35;22.23;;;15.10;99.90;;;;;;5058363;28;20085;-82
2022/05/08 02:37:40;;;;;;;36.95;23.38;;;15.00;99.90;;;;;;5079211;22;20037;-87
2022/05/08 02:40:11;;;;;;;37.70;22.25;;;15.00;99.90;;;;;;5055741;28;20033;-85
2022/05/08 02:42:38;;;;;;;38.08;22.40;;;15.00;99.90;;;;;;5064011;28;20040;-86
2022/05/08 02:45:06;;;;;;;34.63;22.67;;;15.00;99.90;;;;;;5062478;28;20100;-86
2022/05/08 02:47:33;;;;;;;39.25;23.77;;;15.00;99.90;;;;;;5070947;28;20042;-86
2022/05/08 02:49:58;;;;;;;38.28;22.48;;;15.00;99.90;;;;;;5096900;28;20048;-86
2022/05/08 02:52:24;;;;;;;37.05;22.13;;;15.00;99.90;;;;;;5096736;28;20043;-86
2022/05/08 02:54:50;;;;;;;33.40;23.15;;;15.00;99.90;;;;;;5096892;28;20043;-87
2022/05/08 03:00:06;;;;;;;32.63;21.58;;;15.00;99.90;;;;;;5079117;28;20044;-85
2022/05/08 03:02:33;;;;;;;36.38;25.00;;;15.00;99.90;;;;;;5072024;28;20046;-84
2022/05/08 03:04:59;;;;;;;43.17;25.73;;;15.00;99.90;;;;;;5093880;28;20024;-82
2022/05/08 03:07:27;;;;;;;36.78;24.98;;;14.90;99.90;;;;;;5092266;28;20017;-83
2022/05/08 03:09:53;;;;;;;45.55;27.67;;;14.90;99.90;;;;;;5102273;28;20047;-86
2022/05/08 03:12:18;;;;;;;46.17;29.00;;;14.90;99.90;;;;;;5094906;28;20036;-84
2022/05/08 03:14:44;;;;;;;44.60;28.48;;;14.90;99.90;;;;;;5088326;28;20028;-83
2022/05/08 03:17:10;;;;;;;43.10;28.60;;;14.90;99.90;;;;;;5091301;28;20027;-84
2022/05/08 03:19:36;;;;;;;47.45;29.08;;;14.90;99.90;;;;;;5086288;28;20024;-85
2022/05/08 03:22:06;;;;;;;53.35;29.67;;;14.90;99.90;;;;;;5095485;28;20033;-85
2022/05/08 03:24:31;;;;;;;46.45;30.08;;;14.80;99.90;;;;;;5100498;28;20029;-87
2022/05/08 03:26:57;;;;;;;49.45;29.95;;;14.80;99.90;;;;;;5104717;28;20051;-84
2022/05/08 03:29:25;;;;;;;51.30;30.98;;;14.70;99.90;;;;;;5089606;28;20076;-87
2022/05/08 03:31:51;;;;;;;54.83;32.42;;;14.70;99.90;;;;;;5072180;28;20043;-83
2022/05/08 03:34:18;;;;;;;52.58;32.25;;;14.70;99.90;;;;;;5072489;28;20028;-85
2022/05/08 03:36:44;;;;;;;52.95;31.88;;;14.60;99.90;;;;;;5104020;28;20491;-86
2022/05/08 03:39:11;;;;;;;52.38;33.05;;;14.60;99.90;;;;;;5107193;28;20020;-86
2022/05/08 03:41:46;;;;;;;53.70;33.20;;;14.50;99.90;;;;;;5090590;28;20040;-84
2022/05/08 03:44:18;;;;;;;54.10;31.77;;;14.50;99.90;;;;;;5108723;28;20036;-85
2022/05/08 03:46:47;;;;;;;57.03;33.63;;;14.50;99.90;;;;;;5099092;28;20020;-82
2022/05/08 03:49:12;;;;;;;54.13;32.67;;;14.50;99.90;;;;;;5094184;28;20036;-83
2022/05/08 03:51:38;;;;;;;51.90;33.55;;;14.40;99.90;;;;;;5091677;28;20029;-84
2022/05/08 03:54:08;;;;;;;53.63;33.05;;;14.40;99.90;;;;;;5092816;28;20069;-86
2022/05/08 03:56:35;;;;;;;54.38;32.60;;;14.40;99.90;;;;;;5099189;28;20311;-85
2022/05/08 03:59:01;;;;;;;56.55;32.80;;;14.50;99.90;;;;;;5083124;28;20031;-82
2022/05/08 04:01:26;;;;;;;56.15;34.13;;;14.50;99.90;;;;;;5100689;28;20024;-83
2022/05/08 04:03:52;;;;;;;57.13;32.65;;;14.50;99.90;;;;;;5100762;28;20012;-83
2022/05/08 04:06:18;;;;;;;57.97;33.65;;;14.50;99.90;;;;;;5112624;28;20071;-87
2022/05/08 04:08:44;;;;;;;51.72;31.38;;;14.50;99.90;;;;;;5093128;28;20024;-84
2022/05/08 04:11:10;;;;;;;54.33;33.08;;;14.50;99.90;;;;;;5072363;28;20040;-83
2022/05/08 04:13:36;;;;;;;57.95;33.13;;;14.60;99.90;;;;;;5100452;28;20047;-82
2022/05/08 04:16:17;;;;;;;55.70;32.08;;;14.60;99.90;;;;;;5117122;28;20023;-82
2022/05/08 04:18:43;;;;;;;50.75;31.98;;;14.60;99.90;;;;;;5100157;28;20032;-81
2022/05/08 04:21:09;;;;;;;48.08;30.58;;;14.60;99.90;;;;;;5100525;28;20031;-85
2022/05/08 04:26:20;;;;;;;51.17;30.02;;;14.60;99.90;;;;;;5100145;28;20016;-84
2022/05/08 04:28:45;;;;;;;51.00;30.77;;;14.60;99.90;;;;;;5098967;28;20024;-83
2022/05/08 04:31:11;;;;;;;47.70;30.15;;;14.70;99.90;;;;;;5116346;28;20029;-82
2022/05/08 04:33:40;;;;;;;50.30;30.25;;;14.70;99.90;;;;;;5099993;28;20039;-84
2022/05/08 04:36:06;;;;;;;45.60;29.20;;;14.70;99.90;;;;;;5099063;28;20016;-81
2022/05/08 04:38:34;;;;;;;43.35;27.95;;;14.70;99.90;;;;;;5086051;28;20016;-84
2022/05/08 04:40:59;;;;;;;45.67;29.13;;;14.80;99.90;;;;;;5083013;28;20017;-86
2022/05/08 04:43:25;;;;;;;47.03;29.85;;;14.80;99.90;;;;;;5101001;28;20081;-84
2022/05/08 04:45:51;;;;;;;47.78;30.40;;;14.80;99.90;;;;;;5093220;28;20055;-86
2022/05/08 04:48:17;;;;;;;49.22;29.90;;;14.70;99.90;;;;;;5055328;28;20028;-87
2022/05/08 04:50:43;;;;;;;47.65;28.58;;;14.80;99.90;;;;;;5084384;28;20054;-86
2022/05/08 04:53:09;;;;;;;45.05;29.27;;;14.90;99.90;;;;;;5084536;28;20063;-86
2022/05/08 04:55:35;;;;;;;41.55;27.30;;;14.90;99.90;;;;;;5083174;28;20029;-86
2022/05/08 04:58:01;;;;;;;46.22;29.02;;;14.80;99.90;;;;;;5083797;28;20016;-88
2022/05/08 05:00:28;;;;;;;47.70;29.20;;;14.90;99.90;;;;;;5084574;28;20036;-86
2022/05/08 05:02:54;;;;;;;45.72;29.33;;;14.90;99.90;;;;;;5099948;28;20025;-88
2022/05/08 05:05:20;;;;;;;42.15;27.40;;;14.90;99.90;;;;;;5082078;28;20025;-85
2022/05/08 05:07:46;;;;;;;46.80;30.08;;;15.00;99.90;;;;;;5082503;28;20052;-87
2022/05/08 05:10:13;;;;;;;47.65;29.15;;;15.00;99.90;;;;;;5063926;28;20048;-86
2022/05/08 05:12:39;;;;;;;43.45;27.63;;;15.00;99.90;;;;;;5087085;28;20423;-84
2022/05/08 05:15:08;;;;;;;44.83;27.75;;;15.10;99.90;;;;;;5094836;28;20009;-84
2022/05/08 05:17:35;;;;;;;47.20;26.70;;;15.10;99.90;;;;;;5093872;28;20016;-84
2022/05/08 05:20:02;;;;;;;43.50;27.02;;;15.20;99.90;;;;;;5094124;28;20047;-83
2022/05/08 05:22:28;;;;;;;44.38;27.27;;;15.20;99.90;;;;;;5095330;28;20048;-87
2022/05/08 05:24:57;;;;;;;42.63;27.92;;;15.20;99.90;;;;;;5076236;28;20037;-85
2022/05/08 05:27:24;;;;;;;45.85;26.58;;;15.20;99.90;;;;;;5092235;28;20029;-87
2022/05/08 05:29:50;;;;;;;41.63;25.10;;;15.20;99.90;;;;;;5094588;28;20036;-84
2022/05/08 05:32:16;;;;;;;39.92;25.60;;;15.20;99.90;;;;;;5096238;28;20021;-87
2022/05/08 05:34:41;;;;;;;43.28;26.60;;;15.20;99.90;;;;;;5094349;28;20008;-85
2022/05/08 05:37:07;;;;;;;38.83;26.67;;;15.20;99.90;;;;;;5077295;28;20030;-86
2022/05/08 05:39:33;;;;;;;39.58;25.80;;;15.20;99.90;;;;;;5111291;28;20130;-85
2022/05/08 05:42:00;;;;;;;40.90;25.85;;;15.30;99.90;;;;;;5094405;28;20101;-85
2022/05/08 05:44:26;;;;;;;40.70;25.50;;;15.30;99.90;;;;;;5096624;28;20084;-83
2022/05/08 05:49:38;;;;;;;;;;;15.50;99.90;;;;;;5093418;28;20024;-85
2022/05/08 05:52:06;;;;;;;36.97;23.20;;;15.70;99.90;;;;;;5073431;28;19971;-86
2022/05/08 05:54:32;;;;;;;37.17;23.15;;;15.90;99.90;;;;;;5090425;28;20052;-89
2022/05/08 05:56:58;;;;;;;34.55;22.17;;;16.00;99.90;;;;;;5088675;28;20024;-87
2022/05/08 05:59:23;;;;;;;37.55;23.50;;;16.20;99.90;;;;;;5072279;28;20039;-87
2022/05/08 06:01:52;;;;;;;34.78;23.23;;;16.40;99.90;;;;;;5094198;28;20025;-85
2022/05/08 06:04:18;;;;;;;39.55;22.38;;;16.50;99.90;;;;;;5076770;28;20059;-85
2022/05/08 06:06:44;;;;;;;36.20;23.15;;;16.60;99.90;;;;;;5088574;28;20028;-89
2022/05/08 06:09:09;;;;;;;34.75;21.67;;;16.70;99.90;;;;;;5088829;28;20029;-87
2022/05/08 06:11:35;;;;;;;36.03;21.23;;;16.80;99.90;;;;;;5067952;28;20024;-87
2022/05/08 06:14:01;;;;;;;36.47;21.55;;;16.80;99.90;;;;;;5086073;28;20036;-87
2022/05/08 06:16:27;;;;;;;35.05;22.15;;;16.90;99.90;;;;;;5102681;28;20023;-89
2022/05/08 06:18:52;;;;;;;35.85;20.92;;;17.00;99.90;;;;;;5085201;28;20017;-87
2022/05/08 06:21:18;;;;;;;37.95;21.75;;;17.10;99.90;;;;;;5089249;28;20005;-89
2022/05/08 06:23:44;;;;;;;30.52;20.63;;;17.10;99.90;;;;;;5077586;28;20028;-88
2022/05/08 06:26:10;;;;;;;31.88;20.98;;;17.20;99.90;;;;;;5088846;28;20031;-87
2022/05/08 06:28:36;;;;;;;30.88;20.27;;;17.20;99.90;;;;;;5093249;28;20048;-88
2022/05/08 06:31:02;;;;;;;33.92;20.17;;;17.10;99.90;;;;;;5072189;28;20025;-87
2022/05/08 06:33:28;;;;;;;34.20;19.70;;;17.20;99.90;;;;;;5087549;28;20033;-86
2022/05/08 06:35:55;;;;;;;34.72;20.25;;;17.20;99.90;;;;;;5084249;28;20030;-89
2022/05/08 06:38:21;;;;;;;36.42;20.35;;;17.20;99.90;;;;;;5084494;28;20104;-87
2022/05/08 06:40:46;;;;;;;31.48;20.33;;;17.20;99.90;;;;;;5099754;28;20036;-86
2022/05/08 06:43:12;;;;;;;34.58;20.45;;;17.30;99.90;;;;;;5085316;28;20044;-87
2022/05/08 06:45:38;;;;;;;34.33;20.02;;;17.30;99.90;;;;;;5100526;28;20028;-86
2022/05/08 06:48:06;;;;;;;31.75;20.70;;;17.20;99.90;;;;;;5084836;28;20048;-87
2022/05/08 06:50:33;;;;;;;32.65;20.02;;;17.20;99.90;;;;;;5066918;28;20024;-88
2022/05/08 06:52:59;;;;;;;37.10;19.80;;;17.30;99.90;;;;;;5084726;28;20098;-87
2022/05/08 06:55:25;;;;;;;30.83;20.83;;;17.20;99.90;;;;;;5084205;28;20027;-87
2022/05/08 06:57:51;;;;;;;33.75;20.20;;;17.20;99.90;;;;;;5101775;28;20028;-84
2022/05/08 07:03:07;;;;;;;32.95;19.98;;;17.30;99.90;;;;;;5092844;28;20078;-87
2022/05/08 07:05:40;;;;;;;33.38;20.00;;;17.30;99.90;;;;;;5074191;28;20063;-87
2022/05/08 07:08:06;;;;;;;31.17;19.83;;;17.20;99.90;;;;;;5088403;28;20557;-86
2022/05/08 07:10:32;;;;;;;29.73;19.90;;;17.20;99.90;;;;;;5091645;28;20039;-86
2022/05/08 07:12:58;;;;;;;31.00;19.65;;;17.20;99.90;;;;;;5092023;28;20032;-87
2022/05/08 07:15:24;;;;;;;27.73;18.80;;;17.20;99.90;;;;;;5094585;28;20447;-86
2022/05/08 07:17:50;;;;;;;30.38;20.00;;;17.20;99.90;;;;;;5092507;28;20036;-86
2022/05/08 07:20:16;;;;;;;32.10;20.13;;;17.20;99.90;;;;;;5093293;28;20043;-85
2022/05/08 07:22:41;;;;;;;31.65;19.88;;;17.30;99.90;;;;;;5110434;28;20041;-83
2022/05/08 07:25:07;;;;;;;35.20;19.73;;;17.30;99.90;;;;;;5092111;28;20051;-87
2022/05/08 07:27:36;;;;;;;34.97;20.08;;;17.40;99.90;;;;;;5094106;28;20024;-84
2022/05/08 07:30:05;;;;;;;31.05;19.67;;;17.50;99.90;;;;;;5094952;28;20029;-85
2022/05/08 07:32:31;;;;;;;31.67;20.02;;;17.60;99.90;;;;;;5096462;28;20060;-86
2022/05/08 07:37:43;;;;;;;32.47;19.47;;;17.70;99.90;;;;;;5085379;28;20046;-88
2022/05/08 07:40:10;;;;;;;30.17;20.15;;;17.70;99.90;;;;;;5085360;28;20056;-87
2022/05/08 07:42:36;;;;;;;33.25;20.88;;;17.70;99.90;;;;;;5102954;28;20039;-88
2022/05/08 07:45:04;;;;;;;32.92;20.35;;;17.80;99.90;;;;;;5086539;28;20043;-86
2022/05/08 07:47:31;;;;;;;30.90;19.08;;;17.90;99.90;;;;;;5093061;28;20047;-86
2022/05/08 07:49:56;;;;;;;25.40;17.90;;;17.90;99.90;;;;;;5105180;28;20020;-86
2022/05/08 07:52:22;;;;;;;28.80;18.83;;;18.10;99.90;;;;;;5092353;28;20127;-86
2022/05/08 07:54:48;;;;;;;29.73;19.58;;;18.10;99.90;;;;;;5093582;28;20051;-83
2022/05/08 07:57:14;;;;;;;30.90;18.40;;;18.20;99.90;;;;;;5095911;28;20071;-83
2022/05/08 07:59:40;;;;;;;26.98;18.92;;;18.30;99.90;;;;;;5096629;28;20024;-84
2022/05/08 08:02:06;;;;;;;30.40;18.55;;;18.30;99.90;;;;;;5079195;28;20025;-83
2022/05/08 08:04:31;;;;;;;27.38;18.13;;;18.40;99.90;;;;;;5095759;28;20027;-85
2022/05/08 08:06:58;;;;;;;29.05;18.40;;;18.50;99.90;;;;;;5096473;28;20024;-84
2022/05/08 08:09:23;;;;;;;27.50;18.52;;;18.60;99.90;;;;;;5078611;28;20039;-85
2022/05/08 08:11:49;;;;;;;26.83;17.92;;;18.60;99.90;;;;;;5095089;28;20036;-86
2022/05/08 08:14:15;;;;;;;26.85;18.35;;;18.70;99.90;;;;;;5086434;28;20054;-86
2022/05/08 08:16:41;;;;;;;29.50;18.52;;;18.80;99.90;;;;;;5067289;28;20036;-89
2022/05/08 08:19:07;;;;;;;32.60;18.15;;;19.00;99.90;;;;;;5084418;28;20021;-89
2022/05/08 08:21:33;;;;;;;31.27;18.20;;;19.10;99.90;;;;;;5101910;28;20035;-88
2022/05/08 08:23:59;;;;;;;29.35;19.48;;;19.20;99.90;;;;;;5085109;28;20021;-88
2022/05/08 08:26:25;;;;;;;27.90;18.58;;;19.40;99.90;;;;;;5088013;28;20046;-86
2022/05/08 08:28:51;;;;;;;25.25;18.02;;;19.40;99.90;;;;;;5087015;28;20048;-85
2022/05/08 08:31:17;;;;;;;26.90;17.63;;;19.60;99.90;;;;;;5087879;28;20483;-84
2022/05/08 08:33:44;;;;;;;26.60;19.05;;;19.60;99.90;;;;;;5086818;28;20086;-87
2022/05/08 08:36:11;;;;;;;30.98;19.95;;;19.70;99.90;;;;;;5088180;28;20048;-83
2022/05/08 08:38:38;;;;;;;30.20;19.30;;;20.00;99.90;;;;;;5100868;22;20055;-83
2022/05/08 08:41:05;;;;;;;30.75;19.20;;;20.10;99.90;;;;;;5078852;28;20033;-84
2022/05/08 08:49:20;;;;;;;29.55;18.17;;;20.30;99.90;;;;;;5072186;28;20078;-84
2022/05/08 08:51:48;;;;;;;29.33;19.05;;;20.40;99.90;;;;;;5055258;28;20052;-83
2022/05/08 08:54:17;;;;;;;29.30;19.17;;;20.60;99.90;;;;;;5055171;28;20040;-84
2022/05/08 08:56:43;;;;;;;32.17;19.10;;;20.60;99.90;;;;;;5040952;28;20024;-82
2022/05/08 08:59:09;;;;;;;30.05;19.00;;;20.60;99.90;;;;;;5079005;28;20084;-82
2022/05/08 09:01:43;;;;;;;31.38;18.58;;;20.60;99.90;;;;;;5045392;28;20016;-83
2022/05/08 09:04:09;;;;;;;27.27;18.42;;;20.60;99.90;;;;;;5062267;28;20021;-88
2022/05/08 09:06:40;;;;;;;24.40;17.40;;;20.70;99.90;;;;;;5061571;28;20080;-84
2022/05/08 09:09:25;;;;;;;31.08;19.52;;;20.60;99.90;;;;;;5045304;28;20021;-84
2022/05/08 09:11:53;;;;;;;27.05;18.20;;;20.60;99.90;;;;;;5061229;28;20045;-85
2022/05/08 09:14:36;;;;;;;26.98;18.73;;;20.60;99.90;;;;;;5078413;28;20017;-84
2022/05/08 09:17:04;;;;;;;29.90;19.13;;;20.70;99.90;;;;;;5079065;28;20067;-83
2022/05/08 09:19:37;;;;;;;32.08;18.55;;;20.90;99.90;;;;;;5079256;28;20025;-81
2022/05/08 09:22:16;;;;;;;28.02;18.63;;;21.00;99.90;;;;;;5079342;28;20021;-84
2022/05/08 09:24:53;;;;;;;31.13;18.10;;;21.00;99.90;;;;;;5045271;28;20027;-85
2022/05/08 09:27:19;;;;;;;32.10;19.00;;;21.20;99.90;;;;;;5059727;28;20055;-85
2022/05/08 09:29:45;;;;;;;27.45;17.80;;;21.20;99.90;;;;;;5061693;28;20009;-84
2022/05/08 09:32:35;;;;;;;26.52;17.73;;;21.30;99.90;;;;;;5061429;28;20025;-86
2022/05/08 09:35:02;;;;;;;24.83;18.20;;;21.50;99.90;;;;;;5077140;28;20536;-86
2022/05/08 09:37:28;;;;;;;26.05;18.65;;;21.40;99.90;;;;;;5058679;28;20051;-84
2022/05/08 09:40:20;;;;;;;27.27;18.70;;;21.30;99.90;;;;;;5074228;28;20017;-84
2022/05/08 09:42:46;;;;;;;28.52;18.02;;;21.30;99.90;;;;;;5075804;28;20020;-86
2022/05/08 09:45:13;;;;;;;29.23;19.02;;;21.30;99.90;;;;;;5077437;28;20040;-84
2022/05/08 09:47:49;;;;;;;27.75;18.20;;;21.20;99.90;;;;;;5071251;28;20055;-84
2022/05/08 09:50:16;;;;;;;28.83;18.48;;;21.20;99.90;;;;;;5045694;28;20036;-85
2022/05/08 09:52:44;;;;;;;24.92;18.30;;;21.20;99.90;;;;;;5065510;28;20025;-84
2022/05/08 09:55:13;;;;;;;27.52;18.98;;;21.30;99.90;;;;;;5065587;28;20029;-85
2022/05/08 09:57:39;;;;;;;25.55;17.83;;;21.20;99.90;;;;;;5066560;28;20025;-85
2022/05/08 10:00:07;;;;;;;28.40;18.73;;;21.30;99.90;;;;;;5068382;28;20055;-84
2022/05/08 10:02:38;;;;;;;27.40;17.70;;;21.30;99.90;;;;;;5063240;28;20025;-84
2022/05/08 10:05:05;;;;;;;27.67;18.00;;;21.30;99.90;;;;;;5065968;28;20044;-83
2022/05/08 10:07:36;;;;;;;32.72;19.15;;;21.60;99.90;;;;;;5053099;28;20017;-83
2022/05/08 10:15:35;;;;;;;25.70;18.63;;;21.40;99.90;;;;;;5070435;28;20103;-83
2022/05/08 10:18:23;;;;;;;27.20;18.58;;;21.50;99.90;;;;;;5069802;28;20032;-84
2022/05/08 10:21:02;;;;;;;28.25;19.90;;;21.50;99.90;;;;;;5071878;28;20043;-83
2022/05/08 10:23:35;;;;;;;27.40;18.83;;;21.30;99.90;;;;;;5073876;28;20025;-83
2022/05/08 10:26:16;;;;;;;31.50;20.13;;;21.10;99.90;;;;;;5074074;28;20174;-84
2022/05/08 10:29:04;;;;;;;27.23;19.50;;;21.10;99.90;;;;;;5053320;28;20048;-84
2022/05/08 10:31:51;;;;;;;29.63;19.77;;;21.30;99.90;;;;;;5070839;28;20089;-84
2022/05/08 10:34:31;;;;;;;28.27;18.70;;;21.40;99.90;;;;;;5070439;28;20052;-84
2022/05/08 10:37:12;;;;;;;25.30;18.45;;;21.60;99.90;;;;;;5051066;28;20404;-85
2022/05/08 10:39:41;;;;;;;32.42;19.65;;;21.70;99.90;;;;;;5049385;28;20025;-85
2022/05/08 10:42:29;;;;;;;26.77;18.25;;;21.80;99.90;;;;;;5066531;28;20025;-84
2022/05/08 10:44:56;;;;;;;28.75;19.00;;;21.60;99.90;;;;;;5066716;28;20055;-83
2022/05/08 10:47:37;;;;;;;29.70;19.05;;;21.60;99.90;;;;;;5067626;28;20082;-83
2022/05/08 10:50:09;;;;;;;26.55;18.17;;;21.60;99.90;;;;;;5064980;28;20017;-83
2022/05/08 10:52:41;;;;;;;25.38;18.38;;;21.40;99.90;;;;;;5068907;28;20025;-84
2022/05/08 10:55:09;;;;;;;27.63;17.73;;;21.50;99.90;;;;;;5070081;28;20108;-85
2022/05/08 10:57:38;;;;;;;27.30;18.73;;;21.80;99.90;;;;;;5054410;28;20025;-84
2022/05/08 11:00:07;;;;;;;26.95;17.48;;;21.80;99.90;;;;;;5072488;28;20040;-84
2022/05/08 11:02:44;;;;;;;25.42;17.27;;;21.80;99.90;;;;;;5069804;28;20017;-85
2022/05/08 11:05:25;;;;;;;24.83;17.00;;;21.90;99.90;;;;;;5050993;28;20059;-83
2022/05/08 11:07:55;;;;;;;23.30;17.27;;;22.10;99.90;;;;;;5072280;28;20033;-84
2022/05/08 11:10:29;;;;;;;27.10;17.38;;;22.10;99.90;;;;;;5046759;28;20071;-85
2022/05/08 11:13:00;;;;;;;24.33;16.30;;;22.00;99.90;;;;;;5037003;28;20040;-86
2022/05/08 11:15:37;;;;;;;25.40;16.38;;;21.90;99.90;;;;;;5074157;28;20040;-85
2022/05/08 11:18:26;;;;;;;27.17;17.85;;;22.10;99.90;;;;;;5072593;28;20028;-84
2022/05/08 11:20:59;;;;;;;21.95;15.88;;;22.00;99.90;;;;;;5071803;28;20044;-84
2022/05/08 11:23:33;;;;;;;23.48;16.85;;;22.40;99.90;;;;;;5053726;28;20033;-86
2022/05/08 11:26:01;;;;;;;24.55;16.42;;;22.60;99.90;;;;;;5066835;28;20092;-85
2022/05/08 11:28:29;;;;;;;23.92;16.00;;;22.80;99.90;;;;;;5068758;28;20040;-83
2022/05/08 11:30:57;;;;;;;23.10;15.27;;;22.90;99.90;;;;;;5050183;28;20029;-85
2022/05/08 11:36:22;;;;;;;;;;;23.60;99.90;;;;;;5064080;28;20040;-87
2022/05/08 11:38:51;;;;;;;23.92;14.85;;;23.80;99.90;;;;;;5063246;28;19924;-85
2022/05/08 11:41:26;;;;;;;20.95;14.80;;;24.20;99.90;;;;;;5066742;28;20108;-85
2022/05/08 11:43:56;;;;;;;21.10;14.82;;;24.40;99.90;;;;;;5048550;28;20048;-87
2022/05/08 11:46:55;;;;;;;18.38;14.15;;;24.90;99.90;;;;;;5031522;28;20071;-84
2022/05/08 11:49:26;;;;;;;21.45;14.93;;;25.20;99.80;;;;;;5046279;28;20029;-86
2022/05/08 11:51:54;;;;;;;19.15;14.75;;;25.70;98.80;;;;;;5034398;28;20029;-85
2022/05/08 11:54:27;;;;;;;23.85;14.70;;;25.80;98.40;;;;;;5069994;28;20053;-86
2022/05/08 11:57:18;;;;;;;22.73;15.32;;;26.10;97.80;;;;;;5058391;28;20109;-87
2022/05/08 12:00:03;;;;;;;22.00;13.93;;;26.10;97.60;;;;;;5068021;28;20045;-85
2022/05/08 12:02:43;;;;;;;20.20;13.55;;;25.90;97.70;;;;;;5067201;28;20107;-85
2022/05/08 12:05:23;;;;;;;22.35;13.52;;;25.70;97.80;;;;;;5068586;28;20013;-84
2022/05/08 12:07:51;;;;;;;22.08;14.48;;;25.90;97.60;;;;;;5053283;28;20100;-86
2022/05/08 12:10:17;;;;;;;19.33;14.38;;;26.00;97.30;;;;;;5068723;28;20073;-86
2022/05/08 12:12:44;;;;;;;19.00;13.27;;;26.30;97.00;;;;;;5069621;28;20037;-85
2022/05/08 12:15:13;;;;;;;16.17;13.20;;;26.70;96.50;;;;;;5033745;28;20021;-87
2022/05/08 12:17:42;;;;;;;17.08;13.40;;;26.80;96.20;;;;;;5054244;28;20075;-84
2022/05/08 12:20:15;;;;;;;19.38;13.55;;;27.40;95.70;;;;;;5072267;28;20021;-83
2022/05/08 12:22:42;;;;;;;15.80;12.80;;;28.20;94.60;;;;;;5055515;28;20033;-84
2022/05/08 12:25:12;;;;;;;17.55;13.10;;;28.40;93.90;;;;;;5072473;28;20044;-84
2022/05/08 12:27:40;;;;;;;19.58;12.27;;;28.20;93.80;;;;;;5069912;28;20025;-86
2022/05/08 12:30:07;;;;;;;17.30;13.05;;;28.30;93.20;;;;;;5075110;28;20024;-83
2022/05/08 12:32:37;;;;;;;15.98;11.73;;;28.40;93.20;;;;;;5060826;28;20025;-82
2022/05/08 12:35:03;;;;;;;16.77;12.77;;;28.00;93.50;;;;;;5061037;28;20055;-82
2022/05/08 12:37:29;;;;;;;17.23;12.27;;;27.80;93.50;;;;;;5078165;28;20089;-82
2022/05/08 12:39:55;;;;;;;16.30;11.98;;;27.60;93.60;;;;;;5077914;28;20017;-83
2022/05/08 12:42:20;;;;;;;16.90;11.50;;;28.10;93.00;;;;;;5076363;28;20088;-83
2022/05/08 12:44:47;;;;;;;15.15;11.38;;;29.20;92.20;;;;;;5056904;28;20017;-85
2022/05/08 12:47:14;;;;;;;15.48;10.95;;;30.50;91.20;;;;;;5071007;28;20059;-83
2022/05/08 12:49:41;;;;;;;14.68;11.10;;;31.50;89.20;;;;;;5054088;28;20039;-83
2022/05/08 12:52:09;;;;;;;13.57;10.45;;;31.30;87.50;;;;;;5077313;28;20017;-85
2022/05/08 12:54:35;;;;;;;14.68;11.10;;;30.90;86.50;;;;;;5057885;28;20027;-85
2022/05/08 12:57:02;;;;;;;14.90;11.38;;;30.70;86.10;;;;;;5048543;28;20037;-84
2022/05/08 12:59:47;;;;;;;14.80;10.95;;;30.80;85.50;;;;;;5063344;28;20049;-85
2022/05/08 13:02:19;;;;;;;16.08;10.68;;;30.70;84.90;;;;;;5065532;28;20463;-84